QTR1212 OERK-OEJN
Flight info
| Callsign | QTR1212 |
|---|---|
| Flight time | 1h 33m |
| Altitude | 36000 |
| Route | DURMA G782 VEMEM |
| Aircraft | A21N/M-SDE2E3FGHIRWXY/LB1 |
Departure
| Time | 2026-04-26 23:38 |
|---|---|
| Airport | King Khalid International Airport (OERK) |
Arrival
| Time | 2026-04-27 01:11 |
|---|---|
| Airport | King Abdulaziz International Airport (OEJN) |
| Time | Latitude | Longitude | Altitude | Speed | Heading |
|---|---|---|---|---|---|
| 2026-04-26 22:26 | 24.95518 | 46.69651 | 2082 ft | 0 kts | 1° |
| 2026-04-26 23:14 | 24.95514 | 46.69651 | 2082 ft | 3 kts | 1° |
| 2026-04-26 23:14 | 24.95487 | 46.69650 | 2082 ft | 4 kts | 3° |
| 2026-04-26 23:14 | 24.95460 | 46.69648 | 2082 ft | 4 kts | 2° |
| 2026-04-26 23:15 | 24.95433 | 46.69648 | 2082 ft | 4 kts | 351° |
| 2026-04-26 23:15 | 24.95414 | 46.69656 | 2082 ft | 4 kts | 290° |
| 2026-04-26 23:15 | 24.95413 | 46.69663 | 2082 ft | 1 kts | 253° |
| 2026-04-26 23:15 | 24.95414 | 46.69665 | 2082 ft | 0 kts | 253° |
| 2026-04-26 23:27 | 24.95414 | 46.69664 | 2082 ft | 0 kts | 253° |
| 2026-04-26 23:27 | 24.95375 | 46.69586 | 2082 ft | 18 kts | 216° |
| 2026-04-26 23:27 | 24.95254 | 46.69544 | 2082 ft | 19 kts | 196° |
| 2026-04-26 23:27 | 24.95163 | 46.69440 | 2082 ft | 20 kts | 242° |
| 2026-04-26 23:28 | 24.95090 | 46.69302 | 2082 ft | 21 kts | 240° |
| 2026-04-26 23:28 | 24.95031 | 46.69181 | 2082 ft | 13 kts | 264° |
| 2026-04-26 23:28 | 24.95085 | 46.69100 | 2081 ft | 15 kts | 330° |
| 2026-04-26 23:28 | 24.95179 | 46.69041 | 2081 ft | 16 kts | 332° |
| 2026-04-26 23:29 | 24.95280 | 46.68977 | 2082 ft | 18 kts | 334° |
| 2026-04-26 23:29 | 24.95391 | 46.68908 | 2082 ft | 19 kts | 331° |
| 2026-04-26 23:29 | 24.95509 | 46.68833 | 2082 ft | 20 kts | 331° |
| 2026-04-26 23:29 | 24.95635 | 46.68753 | 2082 ft | 21 kts | 331° |
| 2026-04-26 23:30 | 24.95768 | 46.68669 | 2082 ft | 23 kts | 331° |
| 2026-04-26 23:30 | 24.95908 | 46.68579 | 2082 ft | 24 kts | 331° |
| 2026-04-26 23:30 | 24.96055 | 46.68487 | 2082 ft | 25 kts | 331° |
| 2026-04-26 23:30 | 24.96209 | 46.68390 | 2081 ft | 26 kts | 332° |
| 2026-04-26 23:31 | 24.96371 | 46.68288 | 2081 ft | 27 kts | 332° |
| 2026-04-26 23:31 | 24.96540 | 46.68182 | 2081 ft | 29 kts | 331° |
| 2026-04-26 23:31 | 24.96715 | 46.68071 | 2081 ft | 30 kts | 332° |
| 2026-04-26 23:31 | 24.96897 | 46.67955 | 2081 ft | 31 kts | 332° |
| 2026-04-26 23:32 | 24.97030 | 46.67871 | 2080 ft | 10 kts | 331° |
| 2026-04-26 23:32 | 24.97058 | 46.67801 | 2081 ft | 12 kts | 252° |
| 2026-04-26 23:32 | 24.97015 | 46.67717 | 2081 ft | 13 kts | 240° |
| 2026-04-26 23:32 | 24.96961 | 46.67626 | 2081 ft | 15 kts | 223° |
| 2026-04-26 23:33 | 24.96861 | 46.67639 | 2081 ft | 17 kts | 152° |
| 2026-04-26 23:33 | 24.96725 | 46.67725 | 2080 ft | 32 kts | 151° |
| 2026-04-26 23:33 | 24.96512 | 46.67976 | 2082 ft | 24 kts | 98° |
| 2026-04-26 23:33 | 24.96472 | 46.68083 | 2082 ft | 26 kts | 142° |
| 2026-04-26 23:34 | 24.96262 | 46.68053 | 2082 ft | 0 kts | 182° |
| 2026-04-26 23:34 | 24.96125 | 46.68095 | 2079 ft | 46 kts | 151° |
| 2026-04-26 23:34 | 24.96049 | 46.68132 | 2079 ft | 1 kts | 150° |
| 2026-04-26 23:34 | 24.96040 | 46.68138 | 2079 ft | 2 kts | 151° |
| 2026-04-26 23:35 | 24.96019 | 46.68155 | 2081 ft | 11 kts | 143° |
| 2026-04-26 23:35 | 24.95833 | 46.68276 | 2077 ft | 47 kts | 172° |
| 2026-04-26 23:35 | 24.95790 | 46.68289 | 2077 ft | 1 kts | 147° |
| 2026-04-26 23:35 | 24.95757 | 46.68318 | 2078 ft | 22 kts | 142° |
| 2026-04-26 23:36 | 24.95563 | 46.68442 | 2079 ft | 3 kts | 147° |
| 2026-04-26 23:36 | 24.95559 | 46.68446 | 2079 ft | 2 kts | 143° |
| 2026-04-26 23:36 | 24.95546 | 46.68459 | 2078 ft | 3 kts | 139° |
| 2026-04-26 23:36 | 24.95521 | 46.68479 | 2078 ft | 5 kts | 145° |
| 2026-04-26 23:37 | 24.95455 | 46.68525 | 2081 ft | 14 kts | 151° |
| 2026-04-26 23:37 | 24.95355 | 46.68588 | 2081 ft | 26 kts | 150° |
| 2026-04-26 23:37 | 24.95074 | 46.68768 | 2081 ft | 75 kts | 150° |
| 2026-04-26 23:37 | 24.94421 | 46.69183 | 2082 ft | 138 kts | 150° |
| 2026-04-26 23:38 | 24.93508 | 46.69759 | 2276 ft | 159 kts | 148° |
| 2026-04-26 23:38 | 24.92702 | 46.70649 | 2645 ft | 173 kts | 125° |
| 2026-04-26 23:38 | 24.92036 | 46.71759 | 3290 ft | 175 kts | 125° |
| 2026-04-26 23:38 | 24.91374 | 46.72958 | 3755 ft | 190 kts | 126° |
| 2026-04-26 23:39 | 24.90409 | 46.74006 | 4238 ft | 204 kts | 152° |
| 2026-04-26 23:39 | 24.88995 | 46.74365 | 4699 ft | 222 kts | 184° |
| 2026-04-26 23:39 | 24.87480 | 46.73750 | 5039 ft | 249 kts | 217° |
| 2026-04-26 23:39 | 24.86430 | 46.72166 | 5614 ft | 265 kts | 242° |
| 2026-04-26 23:40 | 24.85689 | 46.70294 | 6436 ft | 268 kts | 244° |
| 2026-04-26 23:40 | 24.84947 | 46.68403 | 7231 ft | 270 kts | 244° |
| 2026-04-26 23:40 | 24.84177 | 46.66509 | 8072 ft | 272 kts | 244° |
| 2026-04-26 23:40 | 24.83385 | 46.64610 | 8912 ft | 274 kts | 244° |
| 2026-04-26 23:41 | 24.82577 | 46.62697 | 9789 ft | 276 kts | 244° |
| 2026-04-26 23:41 | 24.81747 | 46.60750 | 10381 ft | 290 kts | 244° |
| 2026-04-26 23:41 | 24.80856 | 46.58673 | 10723 ft | 310 kts | 244° |
| 2026-04-26 23:41 | 24.79911 | 46.56481 | 11228 ft | 322 kts | 244° |
| 2026-04-26 23:42 | 24.78940 | 46.54236 | 11942 ft | 327 kts | 244° |
| 2026-04-26 23:42 | 24.76963 | 46.49658 | 13481 ft | 335 kts | 244° |
| 2026-04-26 23:42 | 24.75958 | 46.47323 | 14199 ft | 339 kts | 245° |
| 2026-04-26 23:43 | 24.74945 | 46.44966 | 14902 ft | 343 kts | 245° |
| 2026-04-26 23:43 | 24.73921 | 46.42590 | 15620 ft | 346 kts | 245° |
| 2026-04-26 23:43 | 24.72884 | 46.40191 | 16331 ft | 349 kts | 245° |
| 2026-04-26 23:43 | 24.71836 | 46.37774 | 17036 ft | 352 kts | 245° |
| 2026-04-26 23:44 | 24.70775 | 46.35332 | 17737 ft | 356 kts | 246° |
| 2026-04-26 23:44 | 24.69704 | 46.32868 | 18408 ft | 359 kts | 246° |
| 2026-04-26 23:44 | 24.68624 | 46.30380 | 19023 ft | 361 kts | 246° |
| 2026-04-26 23:44 | 24.67555 | 46.27916 | 19657 ft | 362 kts | 246° |
| 2026-04-26 23:45 | 24.66454 | 46.25380 | 20336 ft | 364 kts | 245° |
| 2026-04-26 23:45 | 24.65375 | 46.22907 | 20980 ft | 365 kts | 245° |
| 2026-04-26 23:45 | 24.64263 | 46.20353 | 21666 ft | 365 kts | 245° |
| 2026-04-26 23:45 | 24.63167 | 46.17830 | 22334 ft | 367 kts | 245° |
| 2026-04-26 23:46 | 24.62077 | 46.15334 | 22962 ft | 368 kts | 245° |
| 2026-04-26 23:46 | 24.60962 | 46.12792 | 23555 ft | 370 kts | 245° |
| 2026-04-26 23:46 | 24.59840 | 46.10238 | 24035 ft | 372 kts | 245° |
| 2026-04-26 23:46 | 24.58716 | 46.07669 | 24494 ft | 374 kts | 245° |
| 2026-04-26 23:47 | 24.57585 | 46.05084 | 24972 ft | 376 kts | 246° |
| 2026-04-26 23:47 | 24.56454 | 46.02490 | 25427 ft | 378 kts | 246° |
| 2026-04-26 23:47 | 24.55313 | 45.99879 | 25885 ft | 380 kts | 246° |
| 2026-04-26 23:47 | 24.54169 | 45.97255 | 26320 ft | 382 kts | 246° |
| 2026-04-26 23:48 | 24.53013 | 45.94620 | 26762 ft | 384 kts | 246° |
| 2026-04-26 23:48 | 24.51850 | 45.91972 | 27183 ft | 386 kts | 246° |
| 2026-04-26 23:48 | 24.50684 | 45.89315 | 27600 ft | 387 kts | 246° |
| 2026-04-26 23:48 | 24.49510 | 45.86644 | 27999 ft | 389 kts | 246° |
| 2026-04-26 23:49 | 24.48331 | 45.83961 | 28385 ft | 391 kts | 246° |
| 2026-04-26 23:49 | 24.47149 | 45.81268 | 28769 ft | 393 kts | 247° |
| 2026-04-26 23:49 | 24.45961 | 45.78560 | 29143 ft | 394 kts | 247° |
| 2026-04-26 23:49 | 24.44770 | 45.75842 | 29500 ft | 396 kts | 246° |
| 2026-04-26 23:50 | 24.43562 | 45.73113 | 29853 ft | 398 kts | 246° |
| 2026-04-26 23:50 | 24.42345 | 45.70374 | 30164 ft | 400 kts | 246° |
| 2026-04-26 23:50 | 24.41121 | 45.67626 | 30453 ft | 402 kts | 246° |
| 2026-04-26 23:50 | 24.39892 | 45.64866 | 30738 ft | 404 kts | 247° |
| 2026-04-26 23:51 | 24.38660 | 45.62099 | 31093 ft | 403 kts | 247° |
| 2026-04-26 23:51 | 24.37436 | 45.59345 | 31483 ft | 401 kts | 247° |
| 2026-04-26 23:51 | 24.36221 | 45.56604 | 31864 ft | 399 kts | 247° |
| 2026-04-26 23:51 | 24.35007 | 45.53870 | 32242 ft | 397 kts | 247° |
| 2026-04-26 23:52 | 24.33798 | 45.51151 | 32599 ft | 396 kts | 248° |
| 2026-04-26 23:52 | 24.32590 | 45.48440 | 32945 ft | 395 kts | 248° |
| 2026-04-26 23:52 | 24.31404 | 45.45777 | 33276 ft | 393 kts | 248° |
| 2026-04-26 23:52 | 24.30206 | 45.43089 | 33590 ft | 392 kts | 248° |
| 2026-04-26 23:53 | 24.28990 | 45.40367 | 33902 ft | 391 kts | 248° |
| 2026-04-26 23:53 | 24.27809 | 45.37727 | 34150 ft | 391 kts | 248° |
| 2026-04-26 23:53 | 24.26613 | 45.35054 | 34361 ft | 391 kts | 248° |
| 2026-04-26 23:53 | 24.25416 | 45.32379 | 34571 ft | 391 kts | 248° |
| 2026-04-26 23:54 | 24.24219 | 45.29707 | 34786 ft | 390 kts | 248° |
| 2026-04-26 23:54 | 24.23024 | 45.27040 | 34993 ft | 390 kts | 248° |
| 2026-04-26 23:54 | 24.21828 | 45.24372 | 35198 ft | 390 kts | 248° |
| 2026-04-26 23:54 | 24.20632 | 45.21705 | 35396 ft | 390 kts | 248° |
| 2026-04-26 23:55 | 24.19437 | 45.19039 | 35554 ft | 390 kts | 248° |
| 2026-04-26 23:55 | 24.18238 | 45.16368 | 35670 ft | 392 kts | 248° |
| 2026-04-26 23:55 | 24.17033 | 45.13689 | 35824 ft | 393 kts | 248° |
| 2026-04-26 23:55 | 24.15829 | 45.11007 | 35977 ft | 393 kts | 248° |
| 2026-04-26 23:56 | 24.13395 | 45.05604 | 36008 ft | 396 kts | 248° |
| 2026-04-26 23:56 | 24.10955 | 45.00193 | 35987 ft | 396 kts | 248° |
| 2026-04-26 23:57 | 24.08514 | 44.94790 | 35992 ft | 396 kts | 247° |
| 2026-04-26 23:57 | 24.06073 | 44.89392 | 35989 ft | 396 kts | 247° |
| 2026-04-26 23:58 | 24.03629 | 44.83990 | 35992 ft | 396 kts | 247° |
| 2026-04-26 23:58 | 24.01181 | 44.78588 | 35994 ft | 396 kts | 247° |
| 2026-04-26 23:59 | 23.98734 | 44.73192 | 35990 ft | 398 kts | 248° |
| 2026-04-26 23:59 | 23.96268 | 44.67760 | 36002 ft | 399 kts | 248° |
| 2026-04-27 00:00 | 23.93799 | 44.62329 | 36005 ft | 399 kts | 247° |
| 2026-04-27 00:00 | 23.91912 | 44.56694 | 36013 ft | 394 kts | 258° |
| 2026-04-27 00:01 | 23.90692 | 44.50859 | 36008 ft | 394 kts | 259° |
| 2026-04-27 00:01 | 23.89466 | 44.45020 | 36004 ft | 394 kts | 259° |
| 2026-04-27 00:02 | 23.88223 | 44.39186 | 36000 ft | 394 kts | 259° |
| 2026-04-27 00:02 | 23.86975 | 44.33349 | 35994 ft | 395 kts | 259° |
| 2026-04-27 00:03 | 23.85724 | 44.27512 | 35995 ft | 395 kts | 259° |
| 2026-04-27 00:03 | 23.84472 | 44.21677 | 36008 ft | 394 kts | 259° |
| 2026-04-27 00:04 | 23.83222 | 44.15868 | 35991 ft | 393 kts | 259° |
| 2026-04-27 00:04 | 23.81971 | 44.10062 | 35988 ft | 393 kts | 259° |
| 2026-04-27 00:05 | 23.80727 | 44.04296 | 35987 ft | 393 kts | 258° |
| 2026-04-27 00:05 | 23.79472 | 43.98493 | 35979 ft | 393 kts | 259° |
| 2026-04-27 00:06 | 23.78214 | 43.92688 | 35983 ft | 393 kts | 259° |
| 2026-04-27 00:06 | 23.76952 | 43.86880 | 35993 ft | 393 kts | 258° |
| 2026-04-27 00:07 | 23.75678 | 43.81078 | 36006 ft | 392 kts | 258° |
| 2026-04-27 00:07 | 23.74413 | 43.75318 | 35994 ft | 390 kts | 258° |
| 2026-04-27 00:08 | 23.73148 | 43.69558 | 35998 ft | 390 kts | 258° |
| 2026-04-27 00:08 | 23.71879 | 43.63801 | 36003 ft | 390 kts | 258° |
| 2026-04-27 00:09 | 23.70609 | 43.58051 | 36000 ft | 391 kts | 258° |
| 2026-04-27 00:09 | 23.69330 | 43.52277 | 36003 ft | 391 kts | 258° |
| 2026-04-27 00:10 | 23.68052 | 43.46508 | 36013 ft | 391 kts | 258° |
| 2026-04-27 00:10 | 23.66774 | 43.40743 | 36026 ft | 390 kts | 258° |
| 2026-04-27 00:11 | 23.65716 | 43.35974 | 36016 ft | 389 kts | 258° |
| 2026-04-27 00:11 | 23.64440 | 43.30244 | 36025 ft | 389 kts | 258° |
| 2026-04-27 00:12 | 23.62945 | 43.23545 | 36034 ft | 389 kts | 258° |
| 2026-04-27 00:12 | 23.61670 | 43.17844 | 36027 ft | 391 kts | 258° |
| 2026-04-27 00:13 | 23.60379 | 43.12083 | 36030 ft | 391 kts | 258° |
| 2026-04-27 00:13 | 23.59296 | 43.07260 | 36035 ft | 391 kts | 258° |
| 2026-04-27 00:14 | 23.58002 | 43.01509 | 36029 ft | 391 kts | 258° |
| 2026-04-27 00:14 | 23.56710 | 42.95784 | 36030 ft | 392 kts | 258° |
| 2026-04-27 00:15 | 23.55407 | 42.90014 | 36031 ft | 392 kts | 258° |
| 2026-04-27 00:15 | 23.54095 | 42.84207 | 36030 ft | 392 kts | 258° |
| 2026-04-27 00:16 | 23.52794 | 42.78443 | 36029 ft | 392 kts | 258° |
| 2026-04-27 00:16 | 23.51494 | 42.72717 | 36017 ft | 392 kts | 258° |
| 2026-04-27 00:17 | 23.50177 | 42.66914 | 36013 ft | 392 kts | 258° |
| 2026-04-27 00:17 | 23.48874 | 42.61194 | 36029 ft | 392 kts | 258° |
| 2026-04-27 00:18 | 23.47567 | 42.55445 | 36014 ft | 391 kts | 258° |
| 2026-04-27 00:18 | 23.46257 | 42.49703 | 36009 ft | 391 kts | 258° |
| 2026-04-27 00:19 | 23.44945 | 42.43960 | 36010 ft | 391 kts | 258° |
| 2026-04-27 00:19 | 23.43629 | 42.38219 | 36012 ft | 390 kts | 258° |
| 2026-04-27 00:20 | 23.42313 | 42.32483 | 36007 ft | 391 kts | 258° |
| 2026-04-27 00:20 | 23.40992 | 42.26747 | 36008 ft | 391 kts | 258° |
| 2026-04-27 00:21 | 23.39669 | 42.21009 | 36001 ft | 391 kts | 258° |
| 2026-04-27 00:21 | 23.38344 | 42.15281 | 36013 ft | 390 kts | 258° |
| 2026-04-27 00:22 | 23.37011 | 42.09559 | 36013 ft | 390 kts | 258° |
| 2026-04-27 00:22 | 23.35664 | 42.03847 | 36013 ft | 390 kts | 258° |
| 2026-04-27 00:23 | 23.34343 | 41.98123 | 36025 ft | 390 kts | 258° |
| 2026-04-27 00:23 | 23.33017 | 41.92405 | 36002 ft | 391 kts | 258° |
| 2026-04-27 00:24 | 23.31696 | 41.86665 | 36015 ft | 391 kts | 258° |
| 2026-04-27 00:24 | 23.30365 | 41.80926 | 36021 ft | 391 kts | 258° |
| 2026-04-27 00:25 | 23.29024 | 41.75194 | 36027 ft | 391 kts | 257° |
| 2026-04-27 00:25 | 23.26982 | 41.69702 | 36028 ft | 397 kts | 243° |
| 2026-04-27 00:26 | 23.23984 | 41.64637 | 36028 ft | 398 kts | 242° |
| 2026-04-27 00:26 | 23.20963 | 41.59588 | 36026 ft | 398 kts | 242° |
| 2026-04-27 00:27 | 23.17959 | 41.54508 | 36043 ft | 399 kts | 242° |
| 2026-04-27 00:27 | 23.14973 | 41.49445 | 36036 ft | 398 kts | 242° |
| 2026-04-27 00:28 | 23.11978 | 41.44435 | 36046 ft | 398 kts | 241° |
| 2026-04-27 00:28 | 23.08965 | 41.39395 | 36045 ft | 398 kts | 242° |
| 2026-04-27 00:29 | 23.05964 | 41.34342 | 36080 ft | 398 kts | 242° |
| 2026-04-27 00:29 | 23.02974 | 41.29311 | 36051 ft | 396 kts | 242° |
| 2026-04-27 00:30 | 22.99984 | 41.24280 | 36058 ft | 396 kts | 242° |
| 2026-04-27 00:30 | 22.96990 | 41.19256 | 36057 ft | 396 kts | 242° |
| 2026-04-27 00:31 | 22.94002 | 41.14228 | 36061 ft | 397 kts | 242° |
| 2026-04-27 00:31 | 22.91014 | 41.09191 | 36060 ft | 397 kts | 242° |
| 2026-04-27 00:32 | 22.88027 | 41.04148 | 36047 ft | 400 kts | 242° |
| 2026-04-27 00:32 | 22.85005 | 40.99093 | 36054 ft | 396 kts | 242° |
| 2026-04-27 00:33 | 22.82017 | 40.94125 | 36059 ft | 396 kts | 242° |
| 2026-04-27 00:33 | 22.78997 | 40.89067 | 36066 ft | 401 kts | 242° |
| 2026-04-27 00:34 | 22.75945 | 40.84017 | 36062 ft | 401 kts | 242° |
| 2026-04-27 00:34 | 22.72917 | 40.78951 | 36045 ft | 401 kts | 242° |
| 2026-04-27 00:35 | 22.69878 | 40.73908 | 36054 ft | 401 kts | 241° |
| 2026-04-27 00:35 | 22.66878 | 40.68903 | 36058 ft | 396 kts | 242° |
| 2026-04-27 00:36 | 22.63844 | 40.63844 | 36067 ft | 403 kts | 241° |
| 2026-04-27 00:36 | 22.60766 | 40.58769 | 36052 ft | 401 kts | 241° |
| 2026-04-27 00:37 | 22.59253 | 40.56261 | 35750 ft | 397 kts | 241° |
| 2026-04-27 00:37 | 22.57747 | 40.53755 | 35501 ft | 397 kts | 242° |
| 2026-04-27 00:37 | 22.56242 | 40.51247 | 35266 ft | 398 kts | 242° |
| 2026-04-27 00:37 | 22.54728 | 40.48731 | 35031 ft | 399 kts | 242° |
| 2026-04-27 00:38 | 22.53200 | 40.46222 | 34812 ft | 399 kts | 241° |
| 2026-04-27 00:38 | 22.51675 | 40.43722 | 34585 ft | 397 kts | 241° |
| 2026-04-27 00:38 | 22.50167 | 40.41224 | 34361 ft | 395 kts | 242° |
| 2026-04-27 00:38 | 22.48666 | 40.38741 | 34145 ft | 393 kts | 241° |
| 2026-04-27 00:39 | 22.47159 | 40.36279 | 33901 ft | 391 kts | 241° |
| 2026-04-27 00:39 | 22.45671 | 40.33826 | 33643 ft | 389 kts | 242° |
| 2026-04-27 00:39 | 22.44205 | 40.31382 | 33388 ft | 387 kts | 242° |
| 2026-04-27 00:39 | 22.42741 | 40.28947 | 33137 ft | 385 kts | 242° |
| 2026-04-27 00:40 | 22.41279 | 40.26525 | 32886 ft | 384 kts | 241° |
| 2026-04-27 00:40 | 22.39823 | 40.24125 | 32505 ft | 380 kts | 241° |
| 2026-04-27 00:40 | 22.38374 | 40.21750 | 32004 ft | 377 kts | 241° |
| 2026-04-27 00:40 | 22.36936 | 40.19392 | 31483 ft | 375 kts | 241° |
| 2026-04-27 00:41 | 22.35501 | 40.17044 | 30970 ft | 374 kts | 240° |
| 2026-04-27 00:41 | 22.34063 | 40.14709 | 30467 ft | 373 kts | 240° |
| 2026-04-27 00:41 | 22.32636 | 40.12381 | 29941 ft | 371 kts | 240° |
| 2026-04-27 00:41 | 22.31217 | 40.10059 | 29327 ft | 370 kts | 240° |
| 2026-04-27 00:42 | 22.29806 | 40.07743 | 28754 ft | 368 kts | 240° |
| 2026-04-27 00:42 | 22.28400 | 40.05437 | 28231 ft | 366 kts | 240° |
| 2026-04-27 00:42 | 22.27003 | 40.03149 | 27728 ft | 364 kts | 239° |
| 2026-04-27 00:42 | 22.25619 | 40.00876 | 27196 ft | 362 kts | 239° |
| 2026-04-27 00:43 | 22.24239 | 39.98614 | 26683 ft | 360 kts | 239° |
| 2026-04-27 00:43 | 22.22865 | 39.96363 | 26166 ft | 359 kts | 238° |
| 2026-04-27 00:43 | 22.21498 | 39.94121 | 25664 ft | 357 kts | 238° |
| 2026-04-27 00:43 | 22.20135 | 39.91889 | 25163 ft | 355 kts | 238° |
| 2026-04-27 00:44 | 22.18778 | 39.89670 | 24678 ft | 354 kts | 237° |
| 2026-04-27 00:44 | 22.17435 | 39.87467 | 24222 ft | 348 kts | 237° |
| 2026-04-27 00:44 | 22.16158 | 39.85342 | 24004 ft | 336 kts | 237° |
| 2026-04-27 00:44 | 22.14909 | 39.83275 | 23822 ft | 322 kts | 237° |
| 2026-04-27 00:45 | 22.13686 | 39.81287 | 23467 ft | 316 kts | 236° |
| 2026-04-27 00:45 | 22.12482 | 39.79318 | 22898 ft | 314 kts | 237° |
| 2026-04-27 00:45 | 22.11281 | 39.77352 | 22315 ft | 313 kts | 237° |
| 2026-04-27 00:45 | 22.10079 | 39.75402 | 21732 ft | 312 kts | 237° |
| 2026-04-27 00:46 | 22.08884 | 39.73452 | 21195 ft | 311 kts | 237° |
| 2026-04-27 00:46 | 22.07705 | 39.71510 | 20664 ft | 309 kts | 237° |
| 2026-04-27 00:46 | 22.06529 | 39.69579 | 20166 ft | 307 kts | 237° |
| 2026-04-27 00:46 | 22.05352 | 39.67669 | 19708 ft | 304 kts | 237° |
| 2026-04-27 00:47 | 22.04186 | 39.65780 | 19257 ft | 302 kts | 237° |
| 2026-04-27 00:47 | 22.03025 | 39.63888 | 18847 ft | 302 kts | 237° |
| 2026-04-27 00:47 | 22.01866 | 39.62002 | 18464 ft | 302 kts | 238° |
| 2026-04-27 00:47 | 22.00709 | 39.60118 | 18065 ft | 302 kts | 238° |
| 2026-04-27 00:48 | 21.99551 | 39.58234 | 17660 ft | 301 kts | 237° |
| 2026-04-27 00:48 | 21.98400 | 39.56354 | 17245 ft | 300 kts | 237° |
| 2026-04-27 00:48 | 21.97253 | 39.54479 | 16866 ft | 299 kts | 237° |
| 2026-04-27 00:48 | 21.96110 | 39.52611 | 16513 ft | 298 kts | 237° |
| 2026-04-27 00:49 | 21.94971 | 39.50760 | 16171 ft | 296 kts | 237° |
| 2026-04-27 00:49 | 21.93928 | 39.48861 | 15834 ft | 294 kts | 243° |
| 2026-04-27 00:49 | 21.93032 | 39.46891 | 15484 ft | 292 kts | 243° |
| 2026-04-27 00:49 | 21.92159 | 39.44921 | 15156 ft | 291 kts | 243° |
| 2026-04-27 00:50 | 21.91288 | 39.42963 | 14825 ft | 289 kts | 243° |
| 2026-04-27 00:50 | 21.89567 | 39.39054 | 14137 ft | 288 kts | 243° |
| 2026-04-27 00:50 | 21.88706 | 39.37112 | 13801 ft | 287 kts | 243° |
| 2026-04-27 00:51 | 21.87839 | 39.35179 | 13460 ft | 286 kts | 243° |
| 2026-04-27 00:51 | 21.86980 | 39.33255 | 13112 ft | 284 kts | 243° |
| 2026-04-27 00:51 | 21.86117 | 39.31320 | 12866 ft | 288 kts | 243° |
| 2026-04-27 00:51 | 21.85241 | 39.29374 | 12879 ft | 289 kts | 243° |
| 2026-04-27 00:52 | 21.84370 | 39.27419 | 12933 ft | 290 kts | 243° |
| 2026-04-27 00:52 | 21.83496 | 39.25466 | 12964 ft | 290 kts | 242° |
| 2026-04-27 00:52 | 21.82610 | 39.23517 | 12974 ft | 290 kts | 242° |
| 2026-04-27 00:52 | 21.81669 | 39.21601 | 12975 ft | 288 kts | 234° |
| 2026-04-27 00:53 | 21.80435 | 39.19940 | 12531 ft | 285 kts | 228° |
| 2026-04-27 00:53 | 21.79103 | 39.18326 | 11922 ft | 290 kts | 228° |
| 2026-04-27 00:53 | 21.77771 | 39.16707 | 11488 ft | 287 kts | 228° |
| 2026-04-27 00:53 | 21.76457 | 39.15101 | 10963 ft | 286 kts | 228° |
| 2026-04-27 00:54 | 21.75150 | 39.13498 | 10428 ft | 284 kts | 228° |
| 2026-04-27 00:54 | 21.73854 | 39.11917 | 10098 ft | 279 kts | 228° |
| 2026-04-27 00:54 | 21.72578 | 39.10345 | 9996 ft | 279 kts | 228° |
| 2026-04-27 00:54 | 21.71302 | 39.08775 | 9971 ft | 279 kts | 228° |
| 2026-04-27 00:55 | 21.70022 | 39.07205 | 9979 ft | 279 kts | 227° |
| 2026-04-27 00:55 | 21.68735 | 39.05641 | 9983 ft | 279 kts | 228° |
| 2026-04-27 00:55 | 21.67419 | 39.04152 | 9980 ft | 279 kts | 217° |
| 2026-04-27 00:55 | 21.65617 | 39.03367 | 9967 ft | 281 kts | 187° |
| 2026-04-27 00:56 | 21.63676 | 39.03613 | 9977 ft | 286 kts | 165° |
| 2026-04-27 00:56 | 21.61814 | 39.04380 | 9990 ft | 287 kts | 161° |
| 2026-04-27 00:56 | 21.59963 | 39.05189 | 9980 ft | 287 kts | 161° |
| 2026-04-27 00:56 | 21.58108 | 39.05973 | 9978 ft | 287 kts | 162° |
| 2026-04-27 00:57 | 21.56242 | 39.06736 | 9980 ft | 287 kts | 162° |
| 2026-04-27 00:57 | 21.54370 | 39.07486 | 9979 ft | 287 kts | 162° |
| 2026-04-27 00:57 | 21.52500 | 39.08228 | 9979 ft | 287 kts | 162° |
| 2026-04-27 00:57 | 21.50629 | 39.08969 | 9981 ft | 287 kts | 162° |
| 2026-04-27 00:58 | 21.48783 | 39.09703 | 9972 ft | 287 kts | 162° |
| 2026-04-27 00:58 | 21.46909 | 39.10445 | 9971 ft | 287 kts | 162° |
| 2026-04-27 00:58 | 21.45643 | 39.10947 | 9973 ft | 287 kts | 162° |
| 2026-04-27 00:58 | 21.43164 | 39.11928 | 9972 ft | 287 kts | 162° |
| 2026-04-27 00:59 | 21.41901 | 39.12428 | 9932 ft | 283 kts | 162° |
| 2026-04-27 00:59 | 21.39414 | 39.13410 | 9065 ft | 292 kts | 162° |
| 2026-04-27 00:59 | 21.38125 | 39.13920 | 8741 ft | 292 kts | 162° |
| 2026-04-27 00:59 | 21.36224 | 39.14671 | 8305 ft | 290 kts | 161° |
| 2026-04-27 01:00 | 21.34331 | 39.15420 | 7841 ft | 290 kts | 161° |
| 2026-04-27 01:00 | 21.32432 | 39.16170 | 7384 ft | 291 kts | 161° |
| 2026-04-27 01:00 | 21.30539 | 39.16916 | 7009 ft | 288 kts | 161° |
| 2026-04-27 01:00 | 21.28719 | 39.17619 | 6921 ft | 274 kts | 162° |
| 2026-04-27 01:01 | 21.26995 | 39.18288 | 6972 ft | 253 kts | 161° |
| 2026-04-27 01:01 | 21.25486 | 39.19157 | 7000 ft | 246 kts | 139° |
| 2026-04-27 01:01 | 21.24586 | 39.20727 | 6997 ft | 249 kts | 103° |
| 2026-04-27 01:01 | 21.24626 | 39.22541 | 7001 ft | 251 kts | 73° |
| 2026-04-27 01:02 | 21.25233 | 39.24289 | 7018 ft | 250 kts | 67° |
| 2026-04-27 01:02 | 21.25897 | 39.26012 | 7006 ft | 250 kts | 68° |
| 2026-04-27 01:02 | 21.26720 | 39.27674 | 6992 ft | 249 kts | 49° |
| 2026-04-27 01:02 | 21.28090 | 39.28711 | 6817 ft | 246 kts | 16° |
| 2026-04-27 01:03 | 21.29758 | 39.28812 | 6579 ft | 240 kts | 345° |
| 2026-04-27 01:03 | 21.31327 | 39.28238 | 6313 ft | 237 kts | 336° |
| 2026-04-27 01:03 | 21.32849 | 39.27571 | 6020 ft | 236 kts | 336° |
| 2026-04-27 01:03 | 21.34374 | 39.26925 | 5722 ft | 235 kts | 338° |
| 2026-04-27 01:04 | 21.35887 | 39.26299 | 5403 ft | 233 kts | 338° |
| 2026-04-27 01:04 | 21.37396 | 39.25689 | 5087 ft | 230 kts | 339° |
| 2026-04-27 01:04 | 21.38887 | 39.25090 | 4786 ft | 226 kts | 339° |
| 2026-04-27 01:04 | 21.40341 | 39.24507 | 4421 ft | 221 kts | 339° |
| 2026-04-27 01:05 | 21.41796 | 39.23931 | 4066 ft | 223 kts | 340° |
| 2026-04-27 01:05 | 21.43254 | 39.23369 | 3788 ft | 223 kts | 340° |
| 2026-04-27 01:05 | 21.44706 | 39.22797 | 3522 ft | 222 kts | 340° |
| 2026-04-27 01:05 | 21.46126 | 39.22237 | 3315 ft | 211 kts | 340° |
| 2026-04-27 01:06 | 21.47456 | 39.21711 | 3173 ft | 197 kts | 340° |
| 2026-04-27 01:06 | 21.48716 | 39.21213 | 2954 ft | 190 kts | 340° |
| 2026-04-27 01:06 | 21.49954 | 39.20724 | 2788 ft | 189 kts | 340° |
| 2026-04-27 01:06 | 21.51192 | 39.20235 | 2861 ft | 190 kts | 340° |
| 2026-04-27 01:07 | 21.52424 | 39.19747 | 2786 ft | 183 kts | 340° |
| 2026-04-27 01:07 | 21.53560 | 39.19298 | 2633 ft | 165 kts | 340° |
| 2026-04-27 01:07 | 21.54583 | 39.18893 | 2447 ft | 145 kts | 340° |
| 2026-04-27 01:07 | 21.55499 | 39.18532 | 2282 ft | 138 kts | 340° |
| 2026-04-27 01:08 | 21.56398 | 39.18176 | 2112 ft | 138 kts | 341° |
| 2026-04-27 01:08 | 21.57296 | 39.17820 | 1944 ft | 137 kts | 341° |
| 2026-04-27 01:08 | 21.58192 | 39.17466 | 1770 ft | 137 kts | 341° |
| 2026-04-27 01:08 | 21.59087 | 39.17112 | 1599 ft | 137 kts | 341° |
| 2026-04-27 01:09 | 21.59976 | 39.16759 | 1426 ft | 136 kts | 341° |
| 2026-04-27 01:09 | 21.60864 | 39.16408 | 1253 ft | 136 kts | 341° |
| 2026-04-27 01:09 | 21.61751 | 39.16057 | 1075 ft | 136 kts | 341° |
| 2026-04-27 01:09 | 21.62636 | 39.15707 | 921 ft | 135 kts | 340° |
| 2026-04-27 01:10 | 21.63517 | 39.15358 | 758 ft | 135 kts | 340° |
| 2026-04-27 01:10 | 21.64396 | 39.15010 | 580 ft | 134 kts | 340° |
| 2026-04-27 01:10 | 21.65273 | 39.14664 | 448 ft | 134 kts | 339° |
| 2026-04-27 01:10 | 21.66144 | 39.14316 | 277 ft | 133 kts | 340° |
| 2026-04-27 01:11 | 21.67015 | 39.13971 | 110 ft | 133 kts | 339° |
| 2026-04-27 01:11 | 21.67849 | 39.13641 | 49 ft | 122 kts | 340° |
| 2026-04-27 01:11 | 21.68548 | 39.13368 | 36 ft | 82 kts | 340° |
| 2026-04-27 01:11 | 21.68922 | 39.13222 | 36 ft | 33 kts | 340° |
| 2026-04-27 01:12 | 21.69101 | 39.13183 | 35 ft | 26 kts | 5° |
| 2026-04-27 01:12 | 21.69199 | 39.13203 | 35 ft | 0 kts | 16° |
| 2026-04-27 01:14 | 21.69225 | 39.13211 | 35 ft | 10 kts | 15° |
| 2026-04-27 01:14 | 21.69291 | 39.13252 | 37 ft | 13 kts | 77° |
| 2026-04-27 01:14 | 21.69227 | 39.13320 | 37 ft | 15 kts | 163° |
| 2026-04-27 01:14 | 21.69120 | 39.13360 | 38 ft | 17 kts | 160° |
| 2026-04-27 01:15 | 21.69002 | 39.13408 | 38 ft | 19 kts | 159° |
| 2026-04-27 01:15 | 21.68873 | 39.13459 | 38 ft | 20 kts | 159° |
| 2026-04-27 01:15 | 21.68735 | 39.13515 | 38 ft | 22 kts | 160° |
| 2026-04-27 01:15 | 21.68587 | 39.13574 | 37 ft | 23 kts | 159° |
| 2026-04-27 01:16 | 21.68431 | 39.13636 | 38 ft | 23 kts | 160° |
| 2026-04-27 01:16 | 21.68332 | 39.13702 | 38 ft | 16 kts | 105° |
| 2026-04-27 01:16 | 21.68407 | 39.13743 | 38 ft | 18 kts | 333° |
| 2026-04-27 01:16 | 21.68526 | 39.13690 | 38 ft | 19 kts | 340° |
| 2026-04-27 01:17 | 21.68648 | 39.13642 | 38 ft | 7 kts | 340° |
| 2026-04-27 01:17 | 21.68703 | 39.13641 | 38 ft | 10 kts | 34° |
| 2026-04-27 01:17 | 21.68735 | 39.13711 | 37 ft | 12 kts | 72° |
| 2026-04-27 01:17 | 21.68794 | 39.13773 | 38 ft | 14 kts | 1° |
| 2026-04-27 01:18 | 21.68891 | 39.13740 | 38 ft | 16 kts | 338° |
| 2026-04-27 01:18 | 21.68983 | 39.13691 | 38 ft | 0 kts | 316° |
| 2026-04-27 01:18 | 21.68992 | 39.13681 | 38 ft | 10 kts | 310° |
| 2026-04-27 01:18 | 21.69099 | 39.13615 | 38 ft | 19 kts | 341° |
| 2026-04-27 01:19 | 21.69172 | 39.13588 | 38 ft | 1 kts | 333° |
| 2026-04-27 01:19 | 21.69182 | 39.13575 | 38 ft | 4 kts | 295° |
| 2026-04-27 01:19 | 21.69175 | 39.13537 | 38 ft | 6 kts | 250° |
| 2026-04-27 01:19 | 21.69171 | 39.13524 | 38 ft | 0 kts | 250° |